createdAt,value
2023-03-14T00:02:19.533Z,1.07
2023-03-14T00:04:48.833Z,1.40
2023-03-14T00:07:16.830Z,1.30
2023-03-14T00:09:44.673Z,1.07
2023-03-14T00:12:12.795Z,1.20
2023-03-14T00:14:40.672Z,1.23
2023-03-14T00:17:08.607Z,1.23
2023-03-14T00:19:36.484Z,1.37
2023-03-14T00:22:05.706Z,1.50
2023-03-14T00:24:33.663Z,1.13
2023-03-14T00:27:01.556Z,0.90
2023-03-14T00:29:29.495Z,1.03
2023-03-14T00:31:57.374Z,1.23
2023-03-14T00:34:25.240Z,1.20
2023-03-14T00:36:53.106Z,1.10
2023-03-14T00:39:22.513Z,1.40
2023-03-14T00:41:54.092Z,1.40
2023-03-14T00:44:23.703Z,1.00
2023-03-14T00:46:51.625Z,1.53
2023-03-14T00:49:19.614Z,1.10
2023-03-14T00:51:47.616Z,1.10
2023-03-14T00:54:16.213Z,1.10
2023-03-14T00:56:48.503Z,1.10
2023-03-14T00:59:18.237Z,1.03
2023-03-14T01:01:46.236Z,1.20
2023-03-14T01:04:14.347Z,1.10
2023-03-14T01:06:42.469Z,1.27
2023-03-14T01:09:12.416Z,1.33
2023-03-14T01:11:40.292Z,1.17
2023-03-14T01:14:09.747Z,1.20
2023-03-14T01:16:37.684Z,1.17
2023-03-14T01:19:08.741Z,1.10
2023-03-14T01:21:37.600Z,1.30
2023-03-14T01:24:07.385Z,1.40
2023-03-14T01:26:54.617Z,1.13
2023-03-14T01:29:27.580Z,1.60
2023-03-14T01:31:55.562Z,1.00
2023-03-14T01:34:25.654Z,1.50
2023-03-14T01:36:55.177Z,0.90
2023-03-14T01:39:25.786Z,1.20
2023-03-14T01:41:54.435Z,1.37
2023-03-14T01:44:22.415Z,1.30
2023-03-14T01:46:52.084Z,1.37
2023-03-14T01:49:28.563Z,1.00
2023-03-14T01:52:04.696Z,1.00
2023-03-14T01:54:36.372Z,1.00
2023-03-14T01:57:08.621Z,0.97
2023-03-14T01:59:37.252Z,1.30
2023-03-14T02:02:08.483Z,1.30
2023-03-14T02:04:37.228Z,1.20
2023-03-14T02:07:10.872Z,1.10
2023-03-14T02:09:43.799Z,1.10
2023-03-14T02:12:18.011Z,1.20
2023-03-14T02:14:50.477Z,1.20
2023-03-14T02:17:25.237Z,0.90
2023-03-14T02:20:28.151Z,1.13
2023-03-14T02:22:58.677Z,1.37
2023-03-14T02:25:36.533Z,1.47
2023-03-14T02:28:05.856Z,1.00
2023-03-14T02:30:36.179Z,1.40
2023-03-14T02:33:06.485Z,1.20
2023-03-14T02:35:36.989Z,1.30
2023-03-14T02:38:09.507Z,1.50
2023-03-14T02:40:40.761Z,1.00
2023-03-14T02:43:10.344Z,1.20
2023-03-14T02:45:45.311Z,1.53
2023-03-14T02:48:22.322Z,1.10
2023-03-14T02:50:52.949Z,1.10
2023-03-14T02:53:23.978Z,1.43
2023-03-14T02:55:52.936Z,1.10
2023-03-14T02:58:24.875Z,1.27
2023-03-14T03:00:58.551Z,1.80
2023-03-14T03:03:26.684Z,1.93
2023-03-14T03:05:56.166Z,1.17
2023-03-14T03:08:27.006Z,1.23
2023-03-14T03:10:55.838Z,1.20
2023-03-14T03:13:25.009Z,1.30
2023-03-14T03:15:55.398Z,1.47
2023-03-14T03:18:23.325Z,1.40
2023-03-14T03:20:51.204Z,1.20
2023-03-14T03:23:19.055Z,1.20
2023-03-14T03:25:50.636Z,1.33
2023-03-14T03:28:18.722Z,1.13
2023-03-14T03:30:48.467Z,1.30
2023-03-14T03:33:16.673Z,1.30
2023-03-14T03:35:47.951Z,1.27
2023-03-14T03:38:18.647Z,1.57
2023-03-14T03:40:48.039Z,1.30
2023-03-14T03:43:17.154Z,1.50
2023-03-14T03:45:51.243Z,1.27
2023-03-14T03:48:20.073Z,1.60
2023-03-14T03:50:48.219Z,1.17
2023-03-14T03:53:32.481Z,1.60
2023-03-14T03:56:02.148Z,1.30
2023-03-14T03:58:30.025Z,1.20
2023-03-14T04:00:59.331Z,1.20
2023-03-14T04:03:27.376Z,1.20
2023-03-14T04:06:01.209Z,1.30
2023-03-14T04:08:29.196Z,1.30
2023-03-14T04:10:58.360Z,1.10
2023-03-14T04:13:40.416Z,1.40
2023-03-14T04:16:16.875Z,1.20
2023-03-14T04:18:45.756Z,1.00
2023-03-14T04:21:13.929Z,1.13
2023-03-14T04:23:47.659Z,1.27
2023-03-14T04:26:17.015Z,1.47
2023-03-14T04:28:45.443Z,1.37
2023-03-14T04:31:16.071Z,1.57
2023-03-14T04:33:45.675Z,1.50
2023-03-14T04:36:16.063Z,1.50
2023-03-14T04:38:44.928Z,1.10
2023-03-14T04:41:14.521Z,1.10
2023-03-14T04:43:42.441Z,1.10
2023-03-14T04:46:14.119Z,1.70
2023-03-14T04:48:42.871Z,1.40
2023-03-14T04:51:10.899Z,1.47
2023-03-14T04:53:38.996Z,1.13
2023-03-14T04:56:13.890Z,1.50
2023-03-14T04:58:43.617Z,1.30
2023-03-14T05:01:11.811Z,1.40
2023-03-14T05:04:13.338Z,1.50
2023-03-14T05:07:07.565Z,1.63
2023-03-14T05:09:59.057Z,1.30
2023-03-14T05:12:49.763Z,1.40
2023-03-14T05:15:36.420Z,1.53
2023-03-14T05:18:17.521Z,1.30
2023-03-14T05:20:58.864Z,1.00
2023-03-14T05:23:47.682Z,1.30
2023-03-14T05:26:32.459Z,1.40
2023-03-14T05:29:38.702Z,1.10
2023-03-14T05:32:27.666Z,1.10
2023-03-14T05:35:16.274Z,1.90
2023-03-14T05:37:54.798Z,0.80
2023-03-14T05:40:40.985Z,1.30
2023-03-14T05:43:22.333Z,1.30
2023-03-14T05:46:13.295Z,1.00
2023-03-14T05:48:50.763Z,1.10
2023-03-14T05:51:37.017Z,1.00
2023-03-14T05:54:24.834Z,1.23
2023-03-14T05:57:11.111Z,0.90
2023-03-14T05:59:48.746Z,1.27
2023-03-14T06:02:35.253Z,0.90
2023-03-14T06:05:12.269Z,1.30
2023-03-14T06:07:40.398Z,1.90
2023-03-14T06:10:11.015Z,1.13
2023-03-14T06:12:39.577Z,1.10
2023-03-14T06:15:08.922Z,1.17
2023-03-14T06:17:36.935Z,1.67
2023-03-14T06:20:11.065Z,0.97
2023-03-14T06:22:40.532Z,1.30
2023-03-14T06:25:11.320Z,1.33
2023-03-14T06:27:39.335Z,1.47
2023-03-14T06:30:08.605Z,1.30
2023-03-14T06:32:36.655Z,1.23
2023-03-14T06:35:09.888Z,1.43
2023-03-14T06:37:41.695Z,1.00
2023-03-14T06:40:13.659Z,1.10
2023-03-14T06:43:04.741Z,1.13
2023-03-14T06:45:34.436Z,1.57
2023-03-14T06:48:04.801Z,1.00
2023-03-14T06:50:39.812Z,1.20
2023-03-14T06:53:07.912Z,1.17
2023-03-14T06:55:40.739Z,1.10
2023-03-14T06:58:09.926Z,0.90
2023-03-14T07:00:43.347Z,0.87
2023-03-14T07:03:15.234Z,1.07
2023-03-14T07:05:46.559Z,1.07
2023-03-14T07:08:14.531Z,1.00
2023-03-14T07:10:43.845Z,0.83
2023-03-14T07:13:12.008Z,1.20
2023-03-14T07:15:50.935Z,1.20
2023-03-14T07:18:18.904Z,0.93
2023-03-14T07:20:48.193Z,0.97
2023-03-14T07:23:17.311Z,1.00
2023-03-14T07:25:51.831Z,0.97
2023-03-14T07:28:21.971Z,0.80
2023-03-14T07:30:52.596Z,1.00
2023-03-14T07:33:28.757Z,1.00
2023-03-14T07:35:56.665Z,1.20
2023-03-14T07:38:24.830Z,0.90
2023-03-14T07:41:27.371Z,1.10
2023-03-14T07:44:14.278Z,0.80
2023-03-14T07:46:42.486Z,1.07
2023-03-14T07:49:10.390Z,1.00
2023-03-14T07:51:38.218Z,0.90
2023-03-14T07:54:06.189Z,0.90
2023-03-14T07:56:35.438Z,1.00
2023-03-14T07:59:04.609Z,0.80
2023-03-14T08:01:32.547Z,0.70
2023-03-14T08:04:00.748Z,0.70
2023-03-14T08:06:28.729Z,0.80
2023-03-14T08:09:01.995Z,0.70
2023-03-14T08:11:29.910Z,0.90
2023-03-14T08:13:59.156Z,0.90
2023-03-14T08:16:27.205Z,0.70
2023-03-14T08:18:55.101Z,0.60
2023-03-14T08:21:23.207Z,0.83
2023-03-14T08:23:51.219Z,0.80
2023-03-14T08:26:19.059Z,1.17
2023-03-14T08:28:46.979Z,0.80
2023-03-14T08:31:16.354Z,0.83
2023-03-14T08:33:44.613Z,0.83
2023-03-14T08:36:12.974Z,0.80
2023-03-14T08:38:43.450Z,0.70
2023-03-14T08:41:11.569Z,0.63
2023-03-14T08:43:39.551Z,0.60
2023-03-14T08:46:07.780Z,0.60
2023-03-14T08:48:37.543Z,1.23
2023-03-14T08:51:09.622Z,0.63
2023-03-14T08:53:37.681Z,0.60
2023-03-14T08:56:07.117Z,0.80
2023-03-14T08:58:35.221Z,0.60
2023-03-14T09:01:03.169Z,0.60
2023-03-14T09:03:31.886Z,0.70
2023-03-14T09:06:05.921Z,0.67
2023-03-14T09:08:34.387Z,0.60
2023-03-14T09:11:02.368Z,0.80
2023-03-14T09:13:30.326Z,1.03
2023-03-14T09:15:59.806Z,0.60
2023-03-14T09:18:27.676Z,0.60
2023-03-14T09:20:55.543Z,0.80
2023-03-14T09:23:24.833Z,0.60
2023-03-14T09:25:57.113Z,0.60
2023-03-14T09:28:25.034Z,0.60
2023-03-14T09:30:53.403Z,0.60
2023-03-14T09:33:21.359Z,0.80
2023-03-14T09:35:49.334Z,0.57
2023-03-14T09:38:17.519Z,0.70
2023-03-14T09:40:46.745Z,0.70
2023-03-14T09:43:15.787Z,0.60
2023-03-14T09:45:46.686Z,0.60
2023-03-14T09:48:18.461Z,0.70
2023-03-14T09:50:49.700Z,0.60
2023-03-14T09:53:23.029Z,0.70
2023-03-14T09:55:53.200Z,0.67
2023-03-14T09:58:22.519Z,0.60
2023-03-14T10:00:51.539Z,0.80
2023-03-14T10:03:26.990Z,0.90
2023-03-14T10:05:55.124Z,0.57
2023-03-14T10:08:23.752Z,0.60
2023-03-14T10:10:54.202Z,0.70
2023-03-14T10:13:25.369Z,1.00
2023-03-14T10:15:55.183Z,0.70
2023-03-14T10:18:25.710Z,0.73
2023-03-14T10:21:05.714Z,0.50
2023-03-14T10:23:34.849Z,0.70
2023-03-14T10:26:15.181Z,0.63
2023-03-14T10:28:46.850Z,0.73
2023-03-14T10:31:15.473Z,0.60
2023-03-14T10:33:43.832Z,0.60
2023-03-14T10:36:21.829Z,0.60
2023-03-14T10:38:49.932Z,0.70
2023-03-14T10:41:21.852Z,0.57
2023-03-14T10:43:52.256Z,0.60
2023-03-14T10:46:21.187Z,0.70
2023-03-14T10:49:08.255Z,0.60
2023-03-14T10:51:36.579Z,0.50
2023-03-14T10:54:06.425Z,0.60
2023-03-14T10:56:39.004Z,0.60
2023-03-14T10:59:09.853Z,0.60
2023-03-14T11:01:41.797Z,0.63
2023-03-14T11:04:17.571Z,0.70
2023-03-14T11:06:47.180Z,0.80
2023-03-14T11:09:20.217Z,0.60
2023-03-14T11:11:49.945Z,0.50
2023-03-14T11:14:27.333Z,0.67
2023-03-14T11:16:58.614Z,0.70
2023-03-14T11:19:46.490Z,0.70
2023-03-14T11:22:23.862Z,0.60
2023-03-14T11:25:08.071Z,0.63
2023-03-14T11:27:44.485Z,0.60
2023-03-14T11:30:21.883Z,0.60
2023-03-14T11:32:54.048Z,0.60
2023-03-14T11:35:26.378Z,0.60
2023-03-14T11:37:56.855Z,0.60
2023-03-14T11:40:26.064Z,0.60
2023-03-14T11:43:01.978Z,0.60
2023-03-14T11:45:34.727Z,0.80
2023-03-14T11:48:15.628Z,0.90
2023-03-14T11:50:45.339Z,0.60
2023-03-14T11:53:16.485Z,0.80
2023-03-14T11:55:44.861Z,1.10
2023-03-14T11:58:18.187Z,0.60
2023-03-14T12:00:47.057Z,0.70
2023-03-14T12:03:20.980Z,0.67
2023-03-14T12:05:54.498Z,0.70
2023-03-14T12:08:39.493Z,1.00
2023-03-14T12:11:13.298Z,0.90
2023-03-14T12:13:42.958Z,1.00
2023-03-14T12:16:32.735Z,0.60
2023-03-14T12:19:16.342Z,0.80
2023-03-14T12:21:50.449Z,0.80
2023-03-14T12:24:20.648Z,0.60
2023-03-14T12:26:54.186Z,0.60
2023-03-14T12:29:23.975Z,0.40
2023-03-14T12:32:08.575Z,0.40
2023-03-14T12:34:37.129Z,0.50
2023-03-14T12:37:15.269Z,0.50
2023-03-14T12:39:49.765Z,0.50
2023-03-14T12:42:29.612Z,0.50
2023-03-14T12:45:24.361Z,0.50
2023-03-14T12:48:07.199Z,0.57
2023-03-14T12:50:38.657Z,0.50
2023-03-14T12:53:45.937Z,0.50
2023-03-14T12:56:23.452Z,0.60
2023-03-14T12:58:58.648Z,0.50
2023-03-14T13:01:28.016Z,0.50
2023-03-14T13:03:58.324Z,0.50
2023-03-14T13:06:49.217Z,0.50
2023-03-14T13:09:59.958Z,0.60
2023-03-14T13:12:33.309Z,0.70
2023-03-14T13:15:03.767Z,0.60
2023-03-14T13:17:37.539Z,0.57
2023-03-14T13:20:13.490Z,0.60
2023-03-14T13:22:48.959Z,0.70
2023-03-14T13:25:17.922Z,0.60
2023-03-14T13:27:46.227Z,0.80
2023-03-14T13:30:25.588Z,0.93
2023-03-14T13:32:55.860Z,0.60
2023-03-14T13:35:26.202Z,0.70
2023-03-14T13:38:10.196Z,0.70
2023-03-14T13:40:39.599Z,0.93
2023-03-14T13:43:17.696Z,0.90
2023-03-14T13:45:52.415Z,0.60
2023-03-14T13:48:22.128Z,0.70
2023-03-14T13:50:58.505Z,0.80
2023-03-14T13:53:26.824Z,0.70
2023-03-14T13:55:55.734Z,0.70
2023-03-14T13:58:27.063Z,0.90
2023-03-14T14:01:04.041Z,0.70
2023-03-14T14:03:35.318Z,1.10
2023-03-14T14:06:03.339Z,0.93
2023-03-14T14:08:31.527Z,0.90
2023-03-14T14:11:02.636Z,1.20
2023-03-14T14:13:33.382Z,1.10
2023-03-14T14:16:02.831Z,1.10
2023-03-14T14:18:31.215Z,0.90
2023-03-14T14:21:00.948Z,1.10
2023-03-14T14:23:30.242Z,0.90
2023-03-14T14:25:59.459Z,0.90
2023-03-14T14:28:29.920Z,1.10
2023-03-14T14:31:18.107Z,0.90
2023-03-14T14:33:47.084Z,0.60
2023-03-14T14:36:21.369Z,0.97
2023-03-14T14:38:57.311Z,0.73
2023-03-14T14:41:29.546Z,0.80
2023-03-14T14:43:57.958Z,1.53
2023-03-14T14:46:28.998Z,0.80
2023-03-14T14:48:58.344Z,0.83
2023-03-14T14:51:33.063Z,0.87
2023-03-14T14:54:13.578Z,0.90
2023-03-14T14:56:42.022Z,1.47
2023-03-14T14:59:22.794Z,1.00
2023-03-14T15:01:52.191Z,1.10
2023-03-14T15:04:20.203Z,1.20
2023-03-14T15:06:51.177Z,0.97
2023-03-14T15:09:19.257Z,1.07
2023-03-14T15:11:47.354Z,1.10
2023-03-14T15:14:15.266Z,1.63
2023-03-14T15:16:43.431Z,1.40
2023-03-14T15:19:24.288Z,1.33
2023-03-14T15:21:55.191Z,1.37
2023-03-14T15:24:23.488Z,1.20
2023-03-14T15:26:52.262Z,1.30
2023-03-14T15:29:20.456Z,0.90
2023-03-14T15:31:48.416Z,1.07
2023-03-14T15:34:17.660Z,0.90
2023-03-14T15:36:45.765Z,1.20
2023-03-14T15:39:14.981Z,1.00
2023-03-14T15:41:43.005Z,0.90
2023-03-14T15:44:12.224Z,0.90
2023-03-14T15:46:40.126Z,0.90
2023-03-14T15:49:07.935Z,0.90
2023-03-14T15:51:35.813Z,1.50
2023-03-14T15:54:03.656Z,1.00
2023-03-14T15:56:33.011Z,1.00
2023-03-14T15:59:01.034Z,0.97
2023-03-14T16:01:29.000Z,1.07
2023-03-14T16:03:57.268Z,0.90
2023-03-14T16:06:25.288Z,0.73
2023-03-14T16:08:53.156Z,1.00
2023-03-14T16:11:22.770Z,0.80
2023-03-14T16:13:53.118Z,0.87
2023-03-14T16:16:21.178Z,0.90
2023-03-14T16:18:49.117Z,1.10
2023-03-14T16:21:18.575Z,0.90
2023-03-14T16:23:46.937Z,0.90
2023-03-14T16:26:16.638Z,0.90
2023-03-14T16:28:45.301Z,0.93
2023-03-14T16:31:16.904Z,1.20
2023-03-14T16:33:45.004Z,1.00
2023-03-14T16:36:14.579Z,1.10
2023-03-14T16:38:45.302Z,1.40
2023-03-14T16:41:15.140Z,4.57
2023-03-14T16:43:43.338Z,1.80
2023-03-14T16:46:16.937Z,1.20
2023-03-14T16:48:45.423Z,1.30
2023-03-14T16:51:14.179Z,1.20
2023-03-14T16:53:42.541Z,1.37
2023-03-14T16:56:11.049Z,1.13
2023-03-14T16:58:39.367Z,1.10
2023-03-14T17:01:10.426Z,1.30
2023-03-14T17:03:42.004Z,1.30
2023-03-14T17:06:12.575Z,1.20
2023-03-14T17:08:40.662Z,1.20
2023-03-14T17:11:09.662Z,1.20
2023-03-14T17:13:38.307Z,1.37
2023-03-14T17:16:06.860Z,1.20
2023-03-14T17:18:35.207Z,1.47
2023-03-14T17:21:05.612Z,1.20
2023-03-14T17:23:34.674Z,1.20
2023-03-14T17:26:02.587Z,1.57
2023-03-14T17:28:31.284Z,0.90
2023-03-14T17:31:04.170Z,0.77
2023-03-14T17:33:32.335Z,1.00
2023-03-14T17:36:00.377Z,0.80
2023-03-14T17:38:30.661Z,0.83
2023-03-14T17:40:58.707Z,0.70
2023-03-14T17:43:27.029Z,0.80
2023-03-14T17:45:59.070Z,0.80
2023-03-14T17:48:27.048Z,0.60
2023-03-14T17:50:57.074Z,0.70
2023-03-14T17:53:26.512Z,1.00
2023-03-14T17:55:55.892Z,0.90
2023-03-14T17:58:24.766Z,0.93
2023-03-14T18:00:52.599Z,1.00
2023-03-14T18:03:22.424Z,1.20
2023-03-14T18:05:50.524Z,1.40
2023-03-14T18:08:18.416Z,2.00
2023-03-14T18:10:46.458Z,1.33
2023-03-14T18:13:15.725Z,1.37
2023-03-14T18:15:44.270Z,1.63
2023-03-14T18:18:12.306Z,1.53
2023-03-14T18:20:40.204Z,1.20
2023-03-14T18:23:09.229Z,1.40
2023-03-14T18:25:37.087Z,1.00
2023-03-14T18:28:05.083Z,0.80
2023-03-14T18:30:34.327Z,0.70
2023-03-14T18:33:05.573Z,1.40
2023-03-14T18:35:33.550Z,0.90
2023-03-14T18:38:02.291Z,1.10
2023-03-14T18:40:30.760Z,1.00
2023-03-14T18:43:00.437Z,0.87
2023-03-14T18:45:28.512Z,1.10
2023-03-14T18:47:58.032Z,1.13
2023-03-14T18:50:26.474Z,1.23
2023-03-14T18:52:54.676Z,1.83
2023-03-14T18:55:23.159Z,3.27
2023-03-14T18:57:53.299Z,1.70
2023-03-14T19:00:22.202Z,1.90
2023-03-14T19:02:52.731Z,2.13
2023-03-14T19:05:22.190Z,2.00
2023-03-14T19:07:50.208Z,2.53
2023-03-14T19:10:18.361Z,2.80
2023-03-14T19:12:46.578Z,2.30
2023-03-14T19:15:14.522Z,2.93
2023-03-14T19:17:42.908Z,2.93
2023-03-14T19:20:12.515Z,4.03
2023-03-14T19:22:42.689Z,4.63
2023-03-14T19:25:13.696Z,4.07
2023-03-14T19:27:41.658Z,4.10
2023-03-14T19:30:10.653Z,3.93
2023-03-14T19:32:39.251Z,3.50
2023-03-14T19:35:08.855Z,3.53
2023-03-14T19:37:38.446Z,3.20
2023-03-14T19:40:11.975Z,3.03
2023-03-14T19:42:40.036Z,3.47
2023-03-14T19:45:10.322Z,3.27
2023-03-14T19:47:38.630Z,3.00
2023-03-14T19:50:08.299Z,2.90
2023-03-14T19:52:38.694Z,3.17
2023-03-14T19:55:07.053Z,3.30
2023-03-14T19:57:36.417Z,2.50
2023-03-14T20:00:06.051Z,3.37
2023-03-14T20:02:39.668Z,3.53
2023-03-14T20:05:08.580Z,3.00
2023-03-14T20:07:36.518Z,3.47
2023-03-14T20:10:04.712Z,3.20
2023-03-14T20:12:33.790Z,2.53
2023-03-14T20:15:03.257Z,2.43
2023-03-14T20:17:31.406Z,2.80
2023-03-14T20:19:59.534Z,2.33
2023-03-14T20:22:27.468Z,1.87
2023-03-14T20:24:55.377Z,2.43
2023-03-14T20:27:23.244Z,2.13
2023-03-14T20:29:51.163Z,2.43
2023-03-14T20:32:20.628Z,2.20
2023-03-14T20:34:48.804Z,2.27
2023-03-14T20:37:16.751Z,2.00
2023-03-14T20:39:44.937Z,2.60
2023-03-14T20:42:12.855Z,2.10
2023-03-14T20:44:41.009Z,2.17
2023-03-14T20:47:08.937Z,2.43
2023-03-14T20:49:38.296Z,2.50
2023-03-14T20:52:06.554Z,2.53
2023-03-14T20:54:34.560Z,2.40
2023-03-14T20:57:02.384Z,2.27
2023-03-14T20:59:30.248Z,2.20
2023-03-14T21:01:59.145Z,1.80
2023-03-14T21:04:27.492Z,5.63
2023-03-14T21:06:56.954Z,2.53
2023-03-14T21:09:25.265Z,2.17
2023-03-14T21:11:53.851Z,1.83
2023-03-14T21:14:22.725Z,2.67
2023-03-14T21:16:55.702Z,1.73
2023-03-14T21:19:30.624Z,2.13
2023-03-14T21:22:00.832Z,2.30
2023-03-14T21:24:29.279Z,2.50
2023-03-14T21:26:57.517Z,2.30
2023-03-14T21:29:25.691Z,2.13
2023-03-14T21:31:53.650Z,2.37
2023-03-14T21:34:26.608Z,2.40
2023-03-14T21:36:55.569Z,2.20
2023-03-14T21:39:24.796Z,2.30
2023-03-14T21:41:52.653Z,2.10
2023-03-14T21:44:21.739Z,2.10
2023-03-14T21:46:49.791Z,1.90
2023-03-14T21:49:18.201Z,1.80
2023-03-14T21:51:46.943Z,1.70
2023-03-14T21:54:16.115Z,1.40
2023-03-14T21:56:48.209Z,1.37
2023-03-14T21:59:16.648Z,1.60
2023-03-14T22:01:44.671Z,1.27
2023-03-14T22:04:12.657Z,1.40
2023-03-14T22:06:40.594Z,1.77
2023-03-14T22:09:08.635Z,1.63
2023-03-14T22:11:36.578Z,1.73
2023-03-14T22:14:05.826Z,1.40
2023-03-14T22:16:33.754Z,1.90
2023-03-14T22:19:01.737Z,1.73
2023-03-14T22:21:30.212Z,2.30
2023-03-14T22:23:58.103Z,1.70
2023-03-14T22:26:25.998Z,2.03
2023-03-14T22:28:53.867Z,1.80
2023-03-14T22:31:23.123Z,1.70
2023-03-14T22:33:51.001Z,1.73
2023-03-14T22:36:19.057Z,1.93
2023-03-14T22:38:47.007Z,2.33
2023-03-14T22:41:14.946Z,1.93
2023-03-14T22:43:43.030Z,2.17
2023-03-14T22:46:11.334Z,2.63
2023-03-14T22:48:40.698Z,1.90
2023-03-14T22:51:09.261Z,1.73
2023-03-14T22:53:37.771Z,1.97
2023-03-14T22:56:07.693Z,2.00
2023-03-14T22:58:36.745Z,2.00
2023-03-14T23:01:05.082Z,2.50
2023-03-14T23:03:33.118Z,1.83
2023-03-14T23:06:02.507Z,1.90
2023-03-14T23:08:33.202Z,1.60
2023-03-14T23:11:02.490Z,2.27
2023-03-14T23:13:31.373Z,1.57
2023-03-14T23:15:59.698Z,2.23
2023-03-14T23:18:27.796Z,1.73
2023-03-14T23:21:06.846Z,2.13
2023-03-14T23:23:35.337Z,1.80
2023-03-14T23:26:04.904Z,1.83
2023-03-14T23:28:32.919Z,1.93
2023-03-14T23:31:01.648Z,2.80
2023-03-14T23:33:31.367Z,2.50
2023-03-14T23:35:59.359Z,2.43
2023-03-14T23:38:29.252Z,2.10
2023-03-14T23:40:57.180Z,2.43
2023-03-14T23:43:25.444Z,2.27
2023-03-14T23:45:54.393Z,2.37
2023-03-14T23:48:25.912Z,1.70
2023-03-14T23:50:56.192Z,2.40
2023-03-14T23:53:24.364Z,2.00
2023-03-14T23:55:53.741Z,2.60
2023-03-14T23:58:22.666Z,2.57
